Lake Ozark, MO

5:09 AM CST on February 01, 2015 (GMT -0600)
Jefferson City Memorial | Change Station
CLOSE
Current Station
Airport
Location: Jefferson City,
Elevation: 548 ft
Nearby Weather Stations

Elev 548 ft 38.59 °N, 92.16 °W | Updated 16 minutes ago

Rain
Rain
34 °F
Feels Like 28 °F
N
7
Wind Variable Wind from ESE

Today
High -- | Low -- °F
--% Chance of Precip.
Yesterday
High -- | Low -- °F
Precip. -- in
7:15 AM 5:33 PM
Waxing Gibbous, 94% visible
Pressure 29.78 in
Visibility 5.0 miles
Clouds Few 2600 ft
Mostly Cloudy 3100 ft
Overcast 4100 ft
Windchill 28 °F
Dew Point 32 °F
Humidity 92%
Rainfall 0.34 in
Snow Depth Not available.
UV 0 out of 12
Pollen .30 out of 12
Air Quality Not available.
Flu Activity Not available.
METAR KJEF 011053Z AUTO 11006KT 5SM -RA BR FEW026 BKN031 OVC041 01/00 A2980 RMK AO2 RAB0958SNE0958 SLP085 P0007 T00110000

More Conditions Fewer Conditions

Pressure 29.78 in
Visibility 5.0 miles
Clouds Few 2600 ft
Mostly Cloudy 3100 ft
Overcast 4100 ft
Windchill 28 °F
Dew Point 32 °F
Humidity 92%
Rainfall 0.34 in
Snow Depth Not available.
UV 0 out of 12
Pollen .30 out of 12
Air Quality Not available.
Flu Activity Not available.
METAR KJEF 011053Z AUTO 11006KT 5SM -RA BR FEW026 BKN031 OVC041 01/00 A2980 RMK AO2 RAB0958SNE0958 SLP085 P0007 T00110000

More Conditions Fewer Conditions

10-Day Weather Forecast

Almanac

Astronomy

Feb. 01, 2015 Rise Set
Actual Time
Civil Twilight
Nautical Twilight
Astronomical Twilight
Moon
Length of Visible Light
Length of Day
Tomorrow will be .
, % of the Moon is Illuminated

Today's Extremes

State Highs State Lows

Community

WunderPhotos

Upload Photos

1,792,345 photos uploaded!

WunderBlogs® & News

Nearby

Air Quality

  Air Quality AQ Index Pollutant
Not available.

Snow Depth

Station Depth Elevation

Earthquake Activity

City Distance Mag. Time & Date
Minimum magnitude displayed is 2.5.

Coastal Water Temperatures

Place Temperature

Nearby Weather Stations